KGXA

Gray Butte Field Airport

Palmdale, California, USA
METAR KGXA 141255Z AUTO 15003KT 10SM CLR 19/04 A2994 RMK AO2 SLP065 WND DATA ESTMD T01920038 PWINO $
Observed Flight Rules
Aug-14 @ 12:55 UTC (47 minutes ago) Visual Flight Rules
Wind Visibility Clouds
150° at 3 knots 10 miles
  • Clear skies
Temperatures Readings
Current 19°C / 66°F
Dewpoint 4°C / 39°F
Humidity 37%
Altimeter 29.94" Hg
Pressure 1006.5 hPa
Elevation 923
METAR KGXA 141255Z AUTO 15003KT 10SM CLR 19/04 A2994 RMK AO2 SLP065 WND DATA ESTMD T01920038 PWINO $
Observed Flight Rules
Aug-14 @ 12:55 UTC
(47 minutes ago)
VFR
Wind Visibility
150° at 3 knots 10 miles
Clouds
  • Clear skies
Temperature Dewpoint
19°C / 66°F 4°C / 39°F
Humidity Altimeter Pressure
37% 29.94" Hg 1006.5 hPa